createdAt,value
2022-09-24T00:02:27.747Z,13.94
2022-09-24T00:12:32.100Z,13.85
2022-09-24T00:22:34.719Z,13.90
2022-09-24T00:32:38.774Z,13.84
2022-09-24T00:42:41.472Z,13.86
2022-09-24T00:52:47.899Z,13.83
2022-09-24T01:02:56.126Z,13.77
2022-09-24T01:13:09.573Z,13.69
2022-09-24T01:23:28.788Z,13.71
2022-09-24T01:33:37.192Z,13.73
2022-09-24T01:43:40.310Z,13.73
2022-09-24T01:53:48.566Z,13.68
2022-09-24T02:03:56.982Z,13.62
2022-09-24T02:14:05.854Z,13.63
2022-09-24T02:24:13.705Z,13.51
2022-09-24T02:34:25.441Z,13.62
2022-09-24T02:44:29.079Z,13.79
2022-09-24T02:54:33.271Z,13.81
2022-09-24T03:04:35.985Z,13.82
2022-09-24T03:14:40.001Z,13.89
2022-09-24T03:24:42.748Z,13.95
2022-09-24T03:34:46.811Z,14.10
2022-09-24T03:44:49.568Z,14.03
2022-09-24T03:54:53.873Z,14.12
2022-09-24T04:04:56.604Z,14.08
2022-09-24T04:15:02.618Z,13.95
2022-09-24T04:25:06.051Z,13.96
2022-09-24T04:35:11.395Z,13.82
2022-09-24T04:45:17.705Z,13.80
2022-09-24T04:55:22.352Z,13.77
2022-09-24T05:05:25.246Z,13.93
2022-09-24T05:15:29.915Z,14.00
2022-09-24T05:25:32.603Z,13.90
2022-09-24T05:35:36.875Z,13.85
2022-09-24T05:45:39.635Z,14.04
2022-09-24T05:55:44.951Z,13.99
2022-09-24T06:05:49.567Z,14.00
2022-09-24T06:15:53.713Z,14.10
2022-09-24T06:25:56.465Z,14.04
2022-09-24T06:36:03.620Z,14.14
2022-09-24T06:46:06.624Z,14.19
2022-09-24T06:56:10.755Z,14.22
2022-09-24T07:06:13.555Z,14.30
2022-09-24T07:16:17.676Z,14.47
2022-09-24T07:26:20.505Z,14.41
2022-09-24T07:36:24.655Z,14.54
2022-09-24T07:46:27.656Z,14.67
2022-09-24T07:56:32.301Z,14.66
2022-09-24T08:06:39.639Z,14.82
2022-09-24T08:16:45.992Z,15.15
2022-09-24T08:26:48.733Z,15.81
2022-09-24T08:36:53.021Z,15.33
2022-09-24T08:47:22.476Z,15.22
2022-09-24T08:57:28.016Z,15.32
2022-09-24T09:07:33.316Z,15.29
2022-09-24T09:17:45.710Z,15.36
2022-09-24T09:27:52.734Z,15.69
2022-09-24T09:38:05.405Z,15.86
2022-09-24T09:48:12.823Z,16.21
2022-09-24T09:58:22.930Z,16.50
2022-09-24T10:08:26.687Z,16.39
2022-09-24T10:18:34.468Z,16.85
2022-09-24T10:28:59.983Z,17.07
2022-09-24T10:39:10.249Z,16.98
2022-09-24T10:49:26.391Z,16.79
2022-09-24T10:59:46.504Z,16.72
2022-09-24T11:10:33.013Z,17.07
2022-09-24T11:20:39.643Z,17.31
2022-09-24T11:30:52.917Z,17.05
2022-09-24T11:41:10.348Z,20.17
2022-09-24T11:51:24.197Z,17.64
2022-09-24T12:01:32.244Z,17.05
2022-09-24T12:11:37.889Z,16.76
2022-09-24T12:21:44.974Z,17.14
2022-09-24T12:32:13.274Z,17.30
2022-09-24T12:42:20.650Z,17.16
2022-09-24T12:52:27.796Z,17.08
2022-09-24T13:02:45.151Z,17.53
2022-09-24T13:12:48.921Z,16.95
2022-09-24T13:22:59.848Z,17.02
2022-09-24T13:33:10.791Z,16.43
2022-09-24T13:43:18.583Z,16.39
2022-09-24T13:53:29.708Z,16.79
2022-09-24T14:03:35.694Z,17.03
2022-09-24T14:13:45.971Z,16.92
2022-09-24T14:23:53.621Z,16.89
2022-09-24T14:33:56.692Z,16.59
2022-09-24T14:44:03.504Z,16.60
2022-09-24T14:54:22.438Z,16.02
2022-09-24T15:04:29.160Z,15.82
2022-09-24T15:14:34.523Z,15.76
2022-09-24T15:24:38.618Z,15.91
2022-09-24T15:34:41.372Z,15.76
2022-09-24T15:44:46.064Z,15.83
2022-09-24T15:54:48.949Z,15.90
2022-09-24T16:04:53.109Z,16.00
2022-09-24T16:14:58.962Z,15.88
2022-09-24T16:25:03.084Z,15.95
2022-09-24T16:35:06.713Z,15.95
2022-09-24T16:45:12.450Z,15.86
2022-09-24T16:55:15.381Z,15.68
2022-09-24T17:05:19.523Z,15.48
2022-09-24T17:15:22.293Z,15.24
2022-09-24T17:25:26.799Z,14.93
2022-09-24T17:35:29.776Z,14.70
2022-09-24T17:45:33.874Z,14.51
2022-09-24T17:55:37.290Z,14.55
2022-09-24T18:05:42.030Z,14.62
2022-09-24T18:15:44.744Z,14.62
2022-09-24T18:25:48.872Z,14.52
2022-09-24T18:35:51.493Z,14.42
2022-09-24T18:45:55.659Z,14.39
2022-09-24T18:55:59.367Z,14.34
2022-09-24T19:06:05.911Z,14.44
2022-09-24T19:16:10.534Z,14.51
2022-09-24T19:26:17.404Z,14.44
2022-09-24T19:36:21.439Z,14.53
2022-09-24T19:46:27.156Z,14.51
2022-09-24T19:56:30.164Z,14.38
2022-09-24T20:06:35.823Z,14.29
2022-09-24T20:16:40.273Z,14.21
2022-09-24T20:27:10.078Z,14.11
2022-09-24T20:37:12.720Z,14.01
2022-09-24T20:47:16.849Z,13.80
2022-09-24T20:57:19.552Z,13.60
2022-09-24T21:07:23.761Z,13.40
2022-09-24T21:17:54.712Z,13.30
2022-09-24T21:28:07.284Z,13.10
2022-09-24T21:38:10.024Z,13.02
2022-09-24T21:48:46.524Z,12.85
2022-09-24T21:59:34.204Z,12.67
2022-09-24T22:09:39.192Z,12.48
2022-09-24T22:19:41.838Z,12.36
2022-09-24T22:29:46.398Z,12.41
2022-09-24T22:39:49.157Z,12.33
2022-09-24T22:49:53.409Z,12.27
2022-09-24T22:59:56.085Z,12.16
2022-09-24T23:10:00.104Z,12.04
2022-09-24T23:20:03.238Z,11.89
2022-09-24T23:30:08.869Z,11.77
2022-09-24T23:40:12.078Z,11.67
2022-09-24T23:50:16.397Z,11.62
